Airfield :
LOGIN :

Register | Disclaimer

   EN    FR    IT 

 










Legend :    VFR   Marginal VFR   IFR   Intensive IFR   Very Intensive IFR
Visi :
Ceiling :
>= 8 km
>= 3000ft
5 to 8 km
1000 to 3000 ft
1500m to 5 km
500 to 1000 ft
800 to 1500m
200 to 500 ft
< 800m
< 200 ft
Symbols :   Thunderstorms  Fog  Heavy snow  Heavy precipitations  Wind > 20 kt
SIGMETs :     Misc.  Thunderstorms  Icing  Turbulence  Mountain Waves  Volcanic Ashes






- Airport Elevation : 404 ft
- IATA code : WRO


EPWR - Wroclaw

CURRENT METAR :
  • 290930Z 31017KT 9999 BKN017 05/01 Q1016

EXPIRED METARs :
  • 290900Z 31018KT 9999 SCT020 05/00 Q1016
  • 290830Z 31019KT 9999 FEW019 05/00 Q1016
  • 290800Z 31018KT CAVOK 05/00 Q1016
  • 290730Z 30017KT CAVOK 04/M00 Q1015
  • 290700Z 30018KT CAVOK 04/M00 Q1015

TAF TAF EPWR
Valid from the 29 at 09:00 until the 30 at 09:00 UTC


290830Z 2909/3009 31015KT CAVOK
TEMPO 2910/2921 34015G28KT SHRA BKN025CB
BECMG 2912/2914 01015KT
PROB40
TEMPO 2914/2922 01025G35KT 4000 SHSN BKN009 BKN014CB



MET'MAP, your aeronautical weather chart ! - Copyright ORBIFLY December 2007 - Disclaimer

ORBIFLY MET'MAP TEAM :

Programming & Development : Alexandra Zaïnal
Concept & original design : Baudouin d'Aumeries
Assistance for programming : Marc-Olivier Méhu
Technical & hardware support : Manuel Goepfert

Contact : metmap@orbifly.com




SOURCES & CREDITS :

   NOAA